sensor_id;sensor_type;location;lat;lon;timestamp;P1;durP1;ratioP1;P2;durP2;ratioP2
9481;SDS011;4779;48.062;11.672;2024-03-23T00:55:13;3.63;;;2.10;;
9481;SDS011;4779;48.062;11.672;2024-03-23T00:57:39;2.60;;;2.23;;
9481;SDS011;4779;48.062;11.672;2024-03-23T01:00:07;2.80;;;2.13;;
9481;SDS011;4779;48.062;11.672;2024-03-23T01:02:35;2.67;;;2.27;;
9481;SDS011;4779;48.062;11.672;2024-03-23T01:05:02;2.40;;;2.20;;
9481;SDS011;4779;48.062;11.672;2024-03-23T01:07:29;3.27;;;2.43;;
9481;SDS011;4779;48.062;11.672;2024-03-23T01:09:56;3.80;;;2.20;;
9481;SDS011;4779;48.062;11.672;2024-03-23T01:12:23;3.07;;;2.20;;
9481;SDS011;4779;48.062;11.672;2024-03-23T01:14:50;4.13;;;2.07;;
9481;SDS011;4779;48.062;11.672;2024-03-23T01:17:16;2.40;;;2.10;;
9481;SDS011;4779;48.062;11.672;2024-03-23T01:19:43;2.40;;;2.20;;
9481;SDS011;4779;48.062;11.672;2024-03-23T01:22:09;3.00;;;2.27;;
9481;SDS011;4779;48.062;11.672;2024-03-23T01:24:36;2.43;;;2.23;;
9481;SDS011;4779;48.062;11.672;2024-03-23T01:27:02;2.20;;;2.00;;
9481;SDS011;4779;48.062;11.672;2024-03-23T01:29:31;2.10;;;2.00;;
9481;SDS011;4779;48.062;11.672;2024-03-23T01:31:57;2.13;;;1.93;;
9481;SDS011;4779;48.062;11.672;2024-03-23T01:34:24;2.30;;;2.10;;
9481;SDS011;4779;48.062;11.672;2024-03-23T01:36:50;2.90;;;2.20;;
9481;SDS011;4779;48.062;11.672;2024-03-23T01:39:17;2.63;;;2.00;;
9481;SDS011;4779;48.062;11.672;2024-03-23T01:41:43;2.97;;;2.13;;
9481;SDS011;4779;48.062;11.672;2024-03-23T01:44:10;2.60;;;2.40;;
9481;SDS011;4779;48.062;11.672;2024-03-23T01:46:38;5.70;;;2.33;;
9481;SDS011;4779;48.062;11.672;2024-03-23T01:49:06;2.60;;;2.40;;
9481;SDS011;4779;48.062;11.672;2024-03-23T01:51:33;3.47;;;2.00;;
9481;SDS011;4779;48.062;11.672;2024-03-23T01:54:01;2.80;;;2.10;;
9481;SDS011;4779;48.062;11.672;2024-03-23T01:56:28;3.13;;;2.27;;
9481;SDS011;4779;48.062;11.672;2024-03-23T01:58:55;3.80;;;2.20;;
9481;SDS011;4779;48.062;11.672;2024-03-23T02:01:22;3.10;;;2.23;;
9481;SDS011;4779;48.062;11.672;2024-03-23T02:03:50;2.77;;;2.00;;
9481;SDS011;4779;48.062;11.672;2024-03-23T02:06:16;2.13;;;2.03;;
9481;SDS011;4779;48.062;11.672;2024-03-23T02:08:43;2.87;;;2.20;;
9481;SDS011;4779;48.062;11.672;2024-03-23T02:11:09;3.80;;;2.50;;
9481;SDS011;4779;48.062;11.672;2024-03-23T02:13:36;2.50;;;2.20;;
9481;SDS011;4779;48.062;11.672;2024-03-23T02:16:02;2.43;;;2.13;;
9481;SDS011;4779;48.062;11.672;2024-03-23T02:18:31;3.23;;;2.10;;
9481;SDS011;4779;48.062;11.672;2024-03-23T02:20:58;2.50;;;2.30;;
9481;SDS011;4779;48.062;11.672;2024-03-23T02:23:26;3.30;;;2.00;;
9481;SDS011;4779;48.062;11.672;2024-03-23T02:25:52;2.97;;;2.13;;
9481;SDS011;4779;48.062;11.672;2024-03-23T02:28:20;2.20;;;2.00;;
9481;SDS011;4779;48.062;11.672;2024-03-23T02:30:47;2.87;;;2.30;;
9481;SDS011;4779;48.062;11.672;2024-03-23T02:33:14;2.60;;;1.90;;
9481;SDS011;4779;48.062;11.672;2024-03-23T02:35:41;2.33;;;1.80;;
9481;SDS011;4779;48.062;11.672;2024-03-23T02:38:08;2.50;;;2.20;;
9481;SDS011;4779;48.062;11.672;2024-03-23T02:40:36;2.23;;;2.00;;
9481;SDS011;4779;48.062;11.672;2024-03-23T02:43:03;2.80;;;1.80;;
9481;SDS011;4779;48.062;11.672;2024-03-23T02:45:29;2.87;;;2.20;;
9481;SDS011;4779;48.062;11.672;2024-03-23T02:47:56;2.37;;;1.90;;
9481;SDS011;4779;48.062;11.672;2024-03-23T02:50:22;2.57;;;2.10;;
9481;SDS011;4779;48.062;11.672;2024-03-23T02:52:49;3.17;;;2.33;;
9481;SDS011;4779;48.062;11.672;2024-03-23T02:55:15;3.40;;;2.10;;
9481;SDS011;4779;48.062;11.672;2024-03-23T02:57:44;2.37;;;1.80;;
9481;SDS011;4779;48.062;11.672;2024-03-23T03:00:10;2.70;;;2.17;;
9481;SDS011;4779;48.062;11.672;2024-03-23T03:02:38;2.60;;;1.77;;
9481;SDS011;4779;48.062;11.672;2024-03-23T03:05:04;2.07;;;1.90;;
9481;SDS011;4779;48.062;11.672;2024-03-23T03:07:31;4.10;;;2.40;;
9481;SDS011;4779;48.062;11.672;2024-03-23T03:09:57;2.73;;;2.23;;
9481;SDS011;4779;48.062;11.672;2024-03-23T03:12:24;2.33;;;1.90;;
9481;SDS011;4779;48.062;11.672;2024-03-23T03:14:52;2.97;;;1.80;;
9481;SDS011;4779;48.062;11.672;2024-03-23T03:17:19;4.07;;;2.10;;
9481;SDS011;4779;48.062;11.672;2024-03-23T03:19:45;2.30;;;2.10;;
9481;SDS011;4779;48.062;11.672;2024-03-23T03:22:12;3.00;;;2.20;;
9481;SDS011;4779;48.062;11.672;2024-03-23T03:24:38;2.20;;;1.80;;
9481;SDS011;4779;48.062;11.672;2024-03-23T03:27:05;2.00;;;1.90;;
9481;SDS011;4779;48.062;11.672;2024-03-23T03:29:32;2.10;;;1.93;;
9481;SDS011;4779;48.062;11.672;2024-03-23T03:32:02;2.33;;;2.13;;
9481;SDS011;4779;48.062;11.672;2024-03-23T03:34:28;3.07;;;2.10;;
9481;SDS011;4779;48.062;11.672;2024-03-23T03:36:55;2.30;;;2.10;;
9481;SDS011;4779;48.062;11.672;2024-03-23T03:39:22;3.23;;;2.10;;
9481;SDS011;4779;48.062;11.672;2024-03-23T03:41:49;1.97;;;1.87;;
9481;SDS011;4779;48.062;11.672;2024-03-23T03:44:15;2.93;;;2.20;;
9481;SDS011;4779;48.062;11.672;2024-03-23T03:46:42;2.70;;;2.07;;
9481;SDS011;4779;48.062;11.672;2024-03-23T03:49:10;2.80;;;2.13;;
9481;SDS011;4779;48.062;11.672;2024-03-23T03:51:37;2.93;;;2.07;;
9481;SDS011;4779;48.062;11.672;2024-03-23T03:54:03;2.17;;;1.90;;
9481;SDS011;4779;48.062;11.672;2024-03-23T03:56:30;1.83;;;1.73;;
9481;SDS011;4779;48.062;11.672;2024-03-23T03:58:56;3.43;;;1.83;;
9481;SDS011;4779;48.062;11.672;2024-03-23T04:01:23;1.93;;;1.80;;
9481;SDS011;4779;48.062;11.672;2024-03-23T04:03:49;3.07;;;1.67;;
9481;SDS011;4779;48.062;11.672;2024-03-23T04:06:20;3.33;;;2.00;;
9481;SDS011;4779;48.062;11.672;2024-03-23T04:08:48;3.13;;;1.80;;
9481;SDS011;4779;48.062;11.672;2024-03-23T04:11:15;1.93;;;1.77;;
9481;SDS011;4779;48.062;11.672;2024-03-23T04:13:41;1.70;;;1.60;;
9481;SDS011;4779;48.062;11.672;2024-03-23T04:16:09;1.70;;;1.60;;
9481;SDS011;4779;48.062;11.672;2024-03-23T04:18:35;2.30;;;2.00;;
9481;SDS011;4779;48.062;11.672;2024-03-23T04:21:02;2.47;;;2.00;;
9481;SDS011;4779;48.062;11.672;2024-03-23T04:23:30;2.00;;;1.80;;
9481;SDS011;4779;48.062;11.672;2024-03-23T04:26:02;1.80;;;1.70;;
9481;SDS011;4779;48.062;11.672;2024-03-23T04:28:29;2.10;;;1.90;;
9481;SDS011;4779;48.062;11.672;2024-03-23T04:30:56;2.37;;;1.77;;
9481;SDS011;4779;48.062;11.672;2024-03-23T04:33:22;2.77;;;2.00;;
9481;SDS011;4779;48.062;11.672;2024-03-23T04:35:49;1.90;;;1.80;;
9481;SDS011;4779;48.062;11.672;2024-03-23T04:38:15;4.47;;;2.20;;
9481;SDS011;4779;48.062;11.672;2024-03-23T04:40:44;2.00;;;1.63;;
9481;SDS011;4779;48.062;11.672;2024-03-23T04:43:11;3.13;;;1.90;;
9481;SDS011;4779;48.062;11.672;2024-03-23T04:45:38;1.90;;;1.80;;
9481;SDS011;4779;48.062;11.672;2024-03-23T04:48:04;2.10;;;1.60;;
9481;SDS011;4779;48.062;11.672;2024-03-23T04:50:32;1.83;;;1.73;;
9481;SDS011;4779;48.062;11.672;2024-03-23T04:52:59;2.17;;;1.80;;
9481;SDS011;4779;48.062;11.672;2024-03-23T04:55:25;1.93;;;1.83;;
9481;SDS011;4779;48.062;11.672;2024-03-23T04:57:54;1.90;;;1.80;;
9481;SDS011;4779;48.062;11.672;2024-03-23T05:00:20;1.80;;;1.70;;
9481;SDS011;4779;48.062;11.672;2024-03-23T05:02:48;1.90;;;1.80;;
9481;SDS011;4779;48.062;11.672;2024-03-23T05:05:15;1.70;;;1.60;;
9481;SDS011;4779;48.062;11.672;2024-03-23T05:07:41;2.33;;;1.70;;
9481;SDS011;4779;48.062;11.672;2024-03-23T05:10:09;2.90;;;1.93;;
9481;SDS011;4779;48.062;11.672;2024-03-23T05:12:36;1.83;;;1.70;;
9481;SDS011;4779;48.062;11.672;2024-03-23T05:15:05;1.97;;;1.80;;
9481;SDS011;4779;48.062;11.672;2024-03-23T05:17:32;2.43;;;2.13;;
9481;SDS011;4779;48.062;11.672;2024-03-23T05:20:00;3.07;;;1.67;;
9481;SDS011;4779;48.062;11.672;2024-03-23T05:22:26;2.00;;;1.80;;
9481;SDS011;4779;48.062;11.672;2024-03-23T05:24:53;2.67;;;1.40;;
9481;SDS011;4779;48.062;11.672;2024-03-23T05:27:19;2.20;;;1.50;;
9481;SDS011;4779;48.062;11.672;2024-03-23T05:29:46;1.87;;;1.60;;
9481;SDS011;4779;48.062;11.672;2024-03-23T05:32:13;2.13;;;1.60;;
9481;SDS011;4779;48.062;11.672;2024-03-23T05:34:40;1.30;;;1.23;;
9481;SDS011;4779;48.062;11.672;2024-03-23T05:37:07;1.70;;;1.60;;
9481;SDS011;4779;48.062;11.672;2024-03-23T05:39:34;1.70;;;1.60;;
9481;SDS011;4779;48.062;11.672;2024-03-23T05:42:00;1.50;;;1.30;;
9481;SDS011;4779;48.062;11.672;2024-03-23T05:44:27;1.83;;;1.13;;
9481;SDS011;4779;48.062;11.672;2024-03-23T05:46:53;1.50;;;1.40;;
9481;SDS011;4779;48.062;11.672;2024-03-23T05:49:22;2.57;;;1.60;;
9481;SDS011;4779;48.062;11.672;2024-03-23T05:51:47;2.83;;;1.70;;
9481;SDS011;4779;48.062;11.672;2024-03-23T05:54:14;2.27;;;1.70;;
9481;SDS011;4779;48.062;11.672;2024-03-23T05:56:40;1.57;;;1.40;;
9481;SDS011;4779;48.062;11.672;2024-03-23T05:59:07;2.40;;;1.43;;
9481;SDS011;4779;48.062;11.672;2024-03-23T06:01:34;1.50;;;1.30;;
9481;SDS011;4779;48.062;11.672;2024-03-23T06:04:01;1.53;;;1.43;;
9481;SDS011;4779;48.062;11.672;2024-03-23T06:06:29;2.27;;;1.73;;
9481;SDS011;4779;48.062;11.672;2024-03-23T06:08:56;3.30;;;1.53;;
9481;SDS011;4779;48.062;11.672;2024-03-23T06:11:22;1.77;;;1.40;;
9481;SDS011;4779;48.062;11.672;2024-03-23T06:13:51;1.43;;;1.33;;
9481;SDS011;4779;48.062;11.672;2024-03-23T06:16:17;1.90;;;1.50;;
9481;SDS011;4779;48.062;11.672;2024-03-23T06:18:48;1.70;;;1.37;;
9481;SDS011;4779;48.062;11.672;2024-03-23T06:21:14;1.27;;;1.03;;
9481;SDS011;4779;48.062;11.672;2024-03-23T06:23:46;2.50;;;1.27;;
9481;SDS011;4779;48.062;11.672;2024-03-23T06:26:16;2.87;;;1.40;;
9481;SDS011;4779;48.062;11.672;2024-03-23T06:28:43;1.47;;;1.30;;
9481;SDS011;4779;48.062;11.672;2024-03-23T06:31:09;1.57;;;1.30;;
9481;SDS011;4779;48.062;11.672;2024-03-23T06:33:37;1.30;;;1.20;;
9481;SDS011;4779;48.062;11.672;2024-03-23T06:36:03;1.37;;;1.27;;
9481;SDS011;4779;48.062;11.672;2024-03-23T06:38:36;2.37;;;1.30;;
9481;SDS011;4779;48.062;11.672;2024-03-23T06:41:04;1.40;;;1.23;;
9481;SDS011;4779;48.062;11.672;2024-03-23T06:43:31;1.63;;;1.30;;
9481;SDS011;4779;48.062;11.672;2024-03-23T06:45:57;1.20;;;1.10;;
9481;SDS011;4779;48.062;11.672;2024-03-23T06:48:25;1.23;;;1.10;;
9481;SDS011;4779;48.062;11.672;2024-03-23T06:50:55;1.30;;;1.20;;
9481;SDS011;4779;48.062;11.672;2024-03-23T06:53:28;1.07;;;1.07;;
9481;SDS011;4779;48.062;11.672;2024-03-23T06:55:54;1.40;;;1.10;;
9481;SDS011;4779;48.062;11.672;2024-03-23T06:58:24;1.20;;;1.00;;
9481;SDS011;4779;48.062;11.672;2024-03-23T07:00:50;1.80;;;1.50;;
9481;SDS011;4779;48.062;11.672;2024-03-23T07:03:18;3.50;;;1.33;;
9481;SDS011;4779;48.062;11.672;2024-03-23T07:05:45;1.60;;;1.10;;
9481;SDS011;4779;48.062;11.672;2024-03-23T07:08:13;1.30;;;1.10;;
9481;SDS011;4779;48.062;11.672;2024-03-23T07:10:46;2.00;;;1.10;;
9481;SDS011;4779;48.062;11.672;2024-03-23T07:13:13;1.53;;;1.17;;
9481;SDS011;4779;48.062;11.672;2024-03-23T07:15:41;1.87;;;1.10;;
9481;SDS011;4779;48.062;11.672;2024-03-23T07:18:10;2.13;;;1.30;;
9481;SDS011;4779;48.062;11.672;2024-03-23T07:20:36;1.07;;;1.03;;
9481;SDS011;4779;48.062;11.672;2024-03-23T07:23:03;3.23;;;1.40;;
9481;SDS011;4779;48.062;11.672;2024-03-23T07:25:30;2.83;;;1.40;;
9481;SDS011;4779;48.062;11.672;2024-03-23T07:27:57;1.87;;;1.23;;
9481;SDS011;4779;48.062;11.672;2024-03-23T07:30:23;3.20;;;1.40;;
9481;SDS011;4779;48.062;11.672;2024-03-23T07:32:52;2.23;;;1.40;;
9481;SDS011;4779;48.062;11.672;2024-03-23T07:35:18;1.70;;;1.27;;
9481;SDS011;4779;48.062;11.672;2024-03-23T07:37:44;2.73;;;1.67;;
9481;SDS011;4779;48.062;11.672;2024-03-23T07:40:11;1.50;;;1.40;;
9481;SDS011;4779;48.062;11.672;2024-03-23T07:42:39;2.60;;;1.30;;
9481;SDS011;4779;48.062;11.672;2024-03-23T07:45:05;1.37;;;1.10;;
9481;SDS011;4779;48.062;11.672;2024-03-23T07:47:34;1.77;;;1.40;;
9481;SDS011;4779;48.062;11.672;2024-03-23T07:50:01;2.17;;;1.58;;
9481;SDS011;4779;48.062;11.672;2024-03-23T07:52:29;2.80;;;1.77;;
9481;SDS011;4779;48.062;11.672;2024-03-23T07:54:55;2.87;;;1.60;;
9481;SDS011;4779;48.062;11.672;2024-03-23T07:57:22;2.50;;;2.03;;
9481;SDS011;4779;48.062;11.672;2024-03-23T07:59:47;3.30;;;2.50;;
9481;SDS011;4779;48.062;11.672;2024-03-23T08:02:14;3.83;;;2.30;;
9481;SDS011;4779;48.062;11.672;2024-03-23T08:04:40;2.67;;;1.70;;
9481;SDS011;4779;48.062;11.672;2024-03-23T08:07:09;2.33;;;1.80;;
9481;SDS011;4779;48.062;11.672;2024-03-23T08:09:35;2.33;;;2.13;;
9481;SDS011;4779;48.062;11.672;2024-03-23T08:12:02;3.33;;;1.80;;
9481;SDS011;4779;48.062;11.672;2024-03-23T08:14:29;4.90;;;1.47;;
9481;SDS011;4779;48.062;11.672;2024-03-23T08:16:56;1.83;;;1.33;;
9481;SDS011;4779;48.062;11.672;2024-03-23T08:19:22;1.67;;;1.47;;
9481;SDS011;4779;48.062;11.672;2024-03-23T08:21:49;2.07;;;1.60;;
9481;SDS011;4779;48.062;11.672;2024-03-23T08:24:18;1.80;;;1.70;;
9481;SDS011;4779;48.062;11.672;2024-03-23T08:26:46;1.47;;;1.37;;
9481;SDS011;4779;48.062;11.672;2024-03-23T08:29:12;2.20;;;1.67;;
9481;SDS011;4779;48.062;11.672;2024-03-23T08:31:39;1.97;;;1.80;;
9481;SDS011;4779;48.062;11.672;2024-03-23T08:34:08;2.27;;;1.90;;
9481;SDS011;4779;48.062;11.672;2024-03-23T08:36:35;2.77;;;2.23;;
9481;SDS011;4779;48.062;11.672;2024-03-23T08:39:01;2.90;;;2.23;;
9481;SDS011;4779;48.062;11.672;2024-03-23T08:41:30;3.63;;;2.20;;
9481;SDS011;4779;48.062;11.672;2024-03-23T08:43:56;2.50;;;2.30;;
9481;SDS011;4779;48.062;11.672;2024-03-23T08:46:23;2.80;;;2.30;;
9481;SDS011;4779;48.062;11.672;2024-03-23T08:48:49;3.90;;;2.57;;
9481;SDS011;4779;48.062;11.672;2024-03-23T08:51:17;2.40;;;2.23;;
9481;SDS011;4779;48.062;11.672;2024-03-23T08:53:43;2.60;;;2.40;;
9481;SDS011;4779;48.062;11.672;2024-03-23T08:56:11;4.70;;;2.40;;
9481;SDS011;4779;48.062;11.672;2024-03-23T08:58:39;2.73;;;2.40;;
9481;SDS011;4779;48.062;11.672;2024-03-23T09:01:06;3.27;;;2.77;;
9481;SDS011;4779;48.062;11.672;2024-03-23T09:03:33;3.57;;;3.00;;
9481;SDS011;4779;48.062;11.672;2024-03-23T09:06:00;3.30;;;3.00;;
9481;SDS011;4779;48.062;11.672;2024-03-23T09:08:27;3.70;;;2.80;;
9481;SDS011;4779;48.062;11.672;2024-03-23T09:10:54;3.10;;;2.80;;
9481;SDS011;4779;48.062;11.672;2024-03-23T09:13:20;3.27;;;2.77;;
9481;SDS011;4779;48.062;11.672;2024-03-23T09:15:49;3.23;;;2.93;;
9481;SDS011;4779;48.062;11.672;2024-03-23T09:18:16;3.67;;;2.63;;
9481;SDS011;4779;48.062;11.672;2024-03-23T09:20:43;3.30;;;3.00;;
9481;SDS011;4779;48.062;11.672;2024-03-23T09:23:09;3.80;;;3.20;;
9481;SDS011;4779;48.062;11.672;2024-03-23T09:25:37;3.50;;;3.20;;
9481;SDS011;4779;48.062;11.672;2024-03-23T09:28:04;9.77;;;7.03;;
9481;SDS011;4779;48.062;11.672;2024-03-23T09:30:31;9.40;;;8.27;;
9481;SDS011;4779;48.062;11.672;2024-03-23T09:33:00;8.30;;;6.07;;
9481;SDS011;4779;48.062;11.672;2024-03-23T09:35:27;5.80;;;5.20;;
9481;SDS011;4779;48.062;11.672;2024-03-23T09:37:53;4.47;;;3.93;;
9481;SDS011;4779;48.062;11.672;2024-03-23T09:40:20;6.23;;;4.00;;
9481;SDS011;4779;48.062;11.672;2024-03-23T09:42:49;3.37;;;3.07;;
9481;SDS011;4779;48.062;11.672;2024-03-23T09:45:17;3.43;;;3.13;;
9481;SDS011;4779;48.062;11.672;2024-03-23T09:47:46;2.83;;;2.63;;
9481;SDS011;4779;48.062;11.672;2024-03-23T09:50:15;3.90;;;2.80;;
9481;SDS011;4779;48.062;11.672;2024-03-23T09:52:42;3.27;;;2.40;;
9481;SDS011;4779;48.062;11.672;2024-03-23T09:55:09;2.50;;;2.30;;
9481;SDS011;4779;48.062;11.672;2024-03-23T09:57:35;1.80;;;1.70;;
9481;SDS011;4779;48.062;11.672;2024-03-23T10:00:02;3.97;;;1.83;;
9481;SDS011;4779;48.062;11.672;2024-03-23T10:02:28;3.80;;;2.30;;
9481;SDS011;4779;48.062;11.672;2024-03-23T10:04:55;2.87;;;1.50;;
9481;SDS011;4779;48.062;11.672;2024-03-23T10:07:24;2.33;;;2.13;;
9481;SDS011;4779;48.062;11.672;2024-03-23T10:09:53;2.27;;;2.07;;
9481;SDS011;4779;48.062;11.672;2024-03-23T10:12:19;1.60;;;1.50;;
9481;SDS011;4779;48.062;11.672;2024-03-23T10:14:46;1.37;;;1.13;;
9481;SDS011;4779;48.062;11.672;2024-03-23T10:17:13;1.77;;;1.50;;
9481;SDS011;4779;48.062;11.672;2024-03-23T10:19:42;2.53;;;1.40;;
9481;SDS011;4779;48.062;11.672;2024-03-23T10:22:09;1.00;;;0.83;;
9481;SDS011;4779;48.062;11.672;2024-03-23T10:24:40;0.90;;;0.90;;
9481;SDS011;4779;48.062;11.672;2024-03-23T10:27:07;1.50;;;1.40;;
9481;SDS011;4779;48.062;11.672;2024-03-23T10:29:34;1.20;;;0.97;;
9481;SDS011;4779;48.062;11.672;2024-03-23T10:32:09;1.60;;;0.90;;
9481;SDS011;4779;48.062;11.672;2024-03-23T10:34:37;1.27;;;0.80;;
9481;SDS011;4779;48.062;11.672;2024-03-23T10:37:04;1.43;;;0.80;;
9481;SDS011;4779;48.062;11.672;2024-03-23T10:39:32;1.13;;;1.00;;
9481;SDS011;4779;48.062;11.672;2024-03-23T10:42:01;1.10;;;1.00;;
9481;SDS011;4779;48.062;11.672;2024-03-23T10:44:30;4.53;;;2.80;;
9481;SDS011;4779;48.062;11.672;2024-03-23T10:46:57;0.90;;;0.90;;
9481;SDS011;4779;48.062;11.672;2024-03-23T10:49:27;1.30;;;1.00;;
9481;SDS011;4779;48.062;11.672;2024-03-23T10:51:55;1.77;;;0.90;;
9481;SDS011;4779;48.062;11.672;2024-03-23T10:54:26;3.03;;;1.13;;
9481;SDS011;4779;48.062;11.672;2024-03-23T10:56:53;2.03;;;1.10;;
9481;SDS011;4779;48.062;11.672;2024-03-23T10:59:25;2.43;;;0.80;;
9481;SDS011;4779;48.062;11.672;2024-03-23T11:01:55;1.40;;;1.30;;
9481;SDS011;4779;48.062;11.672;2024-03-23T11:04:32;1.20;;;1.10;;
9481;SDS011;4779;48.062;11.672;2024-03-23T11:06:58;1.40;;;1.30;;
9481;SDS011;4779;48.062;11.672;2024-03-23T11:12:25;1.20;;;0.90;;
9481;SDS011;4779;48.062;11.672;2024-03-23T11:14:55;1.03;;;0.93;;
9481;SDS011;4779;48.062;11.672;2024-03-23T11:17:24;0.90;;;0.90;;
9481;SDS011;4779;48.062;11.672;2024-03-23T11:19:55;1.90;;;0.90;;
9481;SDS011;4779;48.062;11.672;2024-03-23T11:22:38;0.90;;;0.67;;
9481;SDS011;4779;48.062;11.672;2024-03-23T11:25:15;1.53;;;0.90;;
9481;SDS011;4779;48.062;11.672;2024-03-23T11:27:46;1.20;;;1.10;;
9481;SDS011;4779;48.062;11.672;2024-03-23T11:30:16;1.23;;;0.90;;
9481;SDS011;4779;48.062;11.672;2024-03-23T11:32:43;0.97;;;0.90;;
9481;SDS011;4779;48.062;11.672;2024-03-23T11:35:11;1.27;;;1.00;;
9481;SDS011;4779;48.062;11.672;2024-03-23T11:38:00;1.30;;;0.73;;
9481;SDS011;4779;48.062;11.672;2024-03-23T11:40:31;1.50;;;1.40;;
9481;SDS011;4779;48.062;11.672;2024-03-23T11:42:58;1.00;;;0.83;;
9481;SDS011;4779;48.062;11.672;2024-03-23T11:45:27;1.00;;;0.90;;
9481;SDS011;4779;48.062;11.672;2024-03-23T11:48:06;0.93;;;0.90;;
9481;SDS011;4779;48.062;11.672;2024-03-23T11:50:36;1.60;;;0.97;;
9481;SDS011;4779;48.062;11.672;2024-03-23T11:53:12;1.10;;;1.00;;
9481;SDS011;4779;48.062;11.672;2024-03-23T11:55:48;1.53;;;1.13;;
9481;SDS011;4779;48.062;11.672;2024-03-23T11:58:15;1.33;;;1.10;;
9481;SDS011;4779;48.062;11.672;2024-03-23T12:00:48;1.40;;;1.00;;
9481;SDS011;4779;48.062;11.672;2024-03-23T12:03:16;1.13;;;1.03;;
9481;SDS011;4779;48.062;11.672;2024-03-23T12:05:47;1.17;;;1.07;;
9481;SDS011;4779;48.062;11.672;2024-03-23T12:08:18;1.97;;;1.37;;
9481;SDS011;4779;48.062;11.672;2024-03-23T12:10:50;2.27;;;1.53;;
9481;SDS011;4779;48.062;11.672;2024-03-23T12:13:17;1.40;;;1.03;;
9481;SDS011;4779;48.062;11.672;2024-03-23T12:15:47;2.37;;;1.50;;
9481;SDS011;4779;48.062;11.672;2024-03-23T12:18:15;3.53;;;1.90;;
9481;SDS011;4779;48.062;11.672;2024-03-23T12:20:42;3.20;;;1.90;;
9481;SDS011;4779;48.062;11.672;2024-03-23T12:23:08;3.37;;;1.90;;
9481;SDS011;4779;48.062;11.672;2024-03-23T12:25:36;4.27;;;2.13;;
9481;SDS011;4779;48.062;11.672;2024-03-23T12:28:03;3.73;;;2.50;;
9481;SDS011;4779;48.062;11.672;2024-03-23T12:30:32;3.97;;;2.50;;
9481;SDS011;4779;48.062;11.672;2024-03-23T12:33:00;3.20;;;2.03;;
9481;SDS011;4779;48.062;11.672;2024-03-23T12:35:28;3.93;;;2.23;;
9481;SDS011;4779;48.062;11.672;2024-03-23T12:37:54;2.43;;;1.80;;
9481;SDS011;4779;48.062;11.672;2024-03-23T12:40:21;3.20;;;2.10;;
9481;SDS011;4779;48.062;11.672;2024-03-23T12:42:47;3.97;;;2.00;;
9481;SDS011;4779;48.062;11.672;2024-03-23T12:45:14;3.40;;;2.20;;
9481;SDS011;4779;48.062;11.672;2024-03-23T12:47:40;2.20;;;2.00;;
9481;SDS011;4779;48.062;11.672;2024-03-23T12:50:09;4.20;;;2.30;;
9481;SDS011;4779;48.062;11.672;2024-03-23T12:52:36;2.60;;;1.83;;
9481;SDS011;4779;48.062;11.672;2024-03-23T12:55:03;2.53;;;2.00;;
9481;SDS011;4779;48.062;11.672;2024-03-23T12:57:30;4.20;;;1.97;;
9481;SDS011;4779;48.062;11.672;2024-03-23T12:59:58;1.63;;;1.53;;
9481;SDS011;4779;48.062;11.672;2024-03-23T13:02:24;3.57;;;2.10;;
9481;SDS011;4779;48.062;11.672;2024-03-23T13:04:51;3.87;;;1.90;;
9481;SDS011;4779;48.062;11.672;2024-03-23T13:07:20;3.33;;;1.90;;
9481;SDS011;4779;48.062;11.672;2024-03-23T13:09:50;2.40;;;2.10;;
9481;SDS011;4779;48.062;11.672;2024-03-23T13:12:16;2.57;;;2.00;;
9481;SDS011;4779;48.062;11.672;2024-03-23T13:14:45;2.83;;;1.80;;
9481;SDS011;4779;48.062;11.672;2024-03-23T13:17:12;3.10;;;1.90;;
9481;SDS011;4779;48.062;11.672;2024-03-23T13:19:39;3.83;;;2.07;;
9481;SDS011;4779;48.062;11.672;2024-03-23T13:22:05;3.33;;;1.87;;
9481;SDS011;4779;48.062;11.672;2024-03-23T13:24:34;3.23;;;2.10;;
9481;SDS011;4779;48.062;11.672;2024-03-23T13:27:01;4.63;;;2.20;;
9481;SDS011;4779;48.062;11.672;2024-03-23T13:29:29;2.47;;;1.90;;
9481;SDS011;4779;48.062;11.672;2024-03-23T13:31:55;3.83;;;2.30;;
9481;SDS011;4779;48.062;11.672;2024-03-23T13:34:22;4.00;;;2.20;;
9481;SDS011;4779;48.062;11.672;2024-03-23T13:36:48;4.67;;;2.50;;
9481;SDS011;4779;48.062;11.672;2024-03-23T13:39:15;3.60;;;2.30;;
9481;SDS011;4779;48.062;11.672;2024-03-23T13:41:43;3.67;;;2.73;;
9481;SDS011;4779;48.062;11.672;2024-03-23T13:44:11;5.70;;;2.70;;
9481;SDS011;4779;48.062;11.672;2024-03-23T13:46:38;4.33;;;2.83;;
9481;SDS011;4779;48.062;11.672;2024-03-23T13:49:07;5.53;;;2.87;;
9481;SDS011;4779;48.062;11.672;2024-03-23T13:51:37;3.57;;;2.37;;
9481;SDS011;4779;48.062;11.672;2024-03-23T13:54:04;4.40;;;2.70;;
9481;SDS011;4779;48.062;11.672;2024-03-23T13:56:30;3.33;;;2.90;;
9481;SDS011;4779;48.062;11.672;2024-03-23T13:58:59;4.77;;;2.83;;
9481;SDS011;4779;48.062;11.672;2024-03-23T14:01:25;3.53;;;2.57;;
9481;SDS011;4779;48.062;11.672;2024-03-23T14:03:52;4.13;;;2.53;;
9481;SDS011;4779;48.062;11.672;2024-03-23T14:06:18;3.67;;;2.33;;
9481;SDS011;4779;48.062;11.672;2024-03-23T14:08:45;3.60;;;1.90;;
9481;SDS011;4779;48.062;11.672;2024-03-23T14:11:11;2.27;;;1.80;;
9481;SDS011;4779;48.062;11.672;2024-03-23T14:13:38;3.37;;;2.00;;
9481;SDS011;4779;48.062;11.672;2024-03-23T14:16:07;2.67;;;2.40;;
9481;SDS011;4779;48.062;11.672;2024-03-23T14:18:34;3.30;;;2.10;;
9481;SDS011;4779;48.062;11.672;2024-03-23T14:21:00;2.23;;;2.03;;
9481;SDS011;4779;48.062;11.672;2024-03-23T14:23:28;3.60;;;1.80;;
9481;SDS011;4779;48.062;11.672;2024-03-23T14:25:56;3.60;;;2.30;;
9481;SDS011;4779;48.062;11.672;2024-03-23T14:28:23;3.70;;;2.70;;
9481;SDS011;4779;48.062;11.672;2024-03-23T14:30:49;3.53;;;3.20;;
9481;SDS011;4779;48.062;11.672;2024-03-23T14:33:18;5.07;;;3.30;;
9481;SDS011;4779;48.062;11.672;2024-03-23T14:35:51;5.03;;;3.40;;
9481;SDS011;4779;48.062;11.672;2024-03-23T14:38:19;4.13;;;2.93;;
9481;SDS011;4779;48.062;11.672;2024-03-23T14:40:45;4.67;;;3.00;;
9481;SDS011;4779;48.062;11.672;2024-03-23T14:43:12;6.13;;;3.40;;
9481;SDS011;4779;48.062;11.672;2024-03-23T14:45:45;7.70;;;4.70;;
9481;SDS011;4779;48.062;11.672;2024-03-23T14:48:31;6.43;;;4.30;;
9481;SDS011;4779;48.062;11.672;2024-03-23T14:50:58;7.53;;;3.90;;
9481;SDS011;4779;48.062;11.672;2024-03-23T14:53:26;4.07;;;2.77;;
9481;SDS011;4779;48.062;11.672;2024-03-23T14:55:54;4.70;;;2.37;;
9481;SDS011;4779;48.062;11.672;2024-03-23T14:58:21;5.70;;;3.50;;
9481;SDS011;4779;48.062;11.672;2024-03-23T15:00:48;5.20;;;3.60;;
9481;SDS011;4779;48.062;11.672;2024-03-23T15:03:15;5.90;;;3.30;;
9481;SDS011;4779;48.062;11.672;2024-03-23T15:05:42;5.50;;;3.00;;
9481;SDS011;4779;48.062;11.672;2024-03-23T15:08:18;5.73;;;3.10;;
9481;SDS011;4779;48.062;11.672;2024-03-23T15:10:44;6.57;;;3.17;;
9481;SDS011;4779;48.062;11.672;2024-03-23T15:13:11;9.40;;;2.67;;
9481;SDS011;4779;48.062;11.672;2024-03-23T15:15:38;5.27;;;2.50;;
9481;SDS011;4779;48.062;11.672;2024-03-23T15:18:08;5.13;;;2.40;;
9481;SDS011;4779;48.062;11.672;2024-03-23T15:20:35;4.07;;;2.30;;
9481;SDS011;4779;48.062;11.672;2024-03-23T15:23:03;6.53;;;2.70;;
9481;SDS011;4779;48.062;11.672;2024-03-23T15:25:30;4.03;;;2.33;;
9481;SDS011;4779;48.062;11.672;2024-03-23T15:27:57;4.03;;;2.23;;
9481;SDS011;4779;48.062;11.672;2024-03-23T15:30:24;9.60;;;4.93;;
9481;SDS011;4779;48.062;11.672;2024-03-23T15:32:51;4.57;;;3.10;;
9481;SDS011;4779;48.062;11.672;2024-03-23T15:35:17;6.67;;;3.20;;
9481;SDS011;4779;48.062;11.672;2024-03-23T15:37:48;5.07;;;2.73;;
9481;SDS011;4779;48.062;11.672;2024-03-23T15:40:15;4.77;;;3.70;;
9481;SDS011;4779;48.062;11.672;2024-03-23T15:42:42;4.47;;;2.90;;
9481;SDS011;4779;48.062;11.672;2024-03-23T15:45:08;3.90;;;2.37;;
9481;SDS011;4779;48.062;11.672;2024-03-23T15:47:36;5.30;;;2.63;;
9481;SDS011;4779;48.062;11.672;2024-03-23T15:50:02;6.00;;;2.40;;
9481;SDS011;4779;48.062;11.672;2024-03-23T15:52:33;3.37;;;2.43;;
9481;SDS011;4779;48.062;11.672;2024-03-23T15:55:00;3.80;;;2.33;;
9481;SDS011;4779;48.062;11.672;2024-03-23T15:57:32;4.77;;;2.70;;
9481;SDS011;4779;48.062;11.672;2024-03-23T15:59:58;5.67;;;2.90;;